Airfield :
LOGIN :

Register | Disclaimer

   EN    FR    IT 

 










Legend :    VFR   Marginal VFR   IFR   Intensive IFR   Very Intensive IFR
Visi :
Ceiling :
>= 8 km
>= 3000ft
5 to 8 km
1000 to 3000 ft
1500m to 5 km
500 to 1000 ft
800 to 1500m
200 to 500 ft
< 800m
< 200 ft
Symbols :   Thunderstorms  Fog  Heavy snow  Heavy precipitations  Wind > 20 kt
SIGMETs :     Misc.  Thunderstorms  Icing  Turbulence  Mountain Waves  Volcanic Ashes






- Airport Elevation : -15 ft
- IATA code : RTM


EHRD - Rotterdam Zestienhoven

CURRENT METAR :
  • 290425Z AUTO VRB02KT 9999 -RA FEW001 FEW015CB SCT018 BKN041 09/08 Q1017 NOSIG

EXPIRED METARs :
  • 290355Z AUTO 35008KT 300V020 9999 -RA FEW015CB BKN039 OVC043 10/07 Q1017 NOSIG
  • 290325Z AUTO 35009KT 290V030 9999 -UP FEW015CB BKN038 OVC043 10/07 Q1017 NOSIG
  • 290255Z AUTO 31003KT 270V360 9999 BKN046 09/07 Q1017 NOSIG
  • 290225Z AUTO 29003KT 250V340 9999 SCT045 08/06 Q1017 NOSIG
  • 290155Z AUTO 30004KT 270V330 9999 FEW027 BKN046 07/05 Q1018 NOSIG

TAF TAF EHRD
Valid from the 29 at 00:00 until the 30 at 06:00 UTC


282306Z 2900/3006 33008KT 9999 SCT035
PROB40
TEMPO 2900/2912 5000 -SHRA SCT020TCU BKN025
BECMG 2908/2911 34014KT
BECMG 2917/2920 34005KT
BECMG 2923/3002 VRB02KT



MET'MAP, your aeronautical weather chart ! - Copyright ORBIFLY December 2007 - Disclaimer

ORBIFLY MET'MAP TEAM :

Programming & Development : Alexandra Zaïnal
Original concept : Baudouin d'Aumeries
Technical & hardware support : Manuel Goepfert
Assistance : Marc-Olivier Méhu

Contact : metmap@orbifly.com




SOURCES & CREDITS :

   NOAA